sensor_id;sensor_type;location;lat;lon;timestamp;pressure;altitude;pressure_sealevel;temperature;humidity
37856;BME280;23694;43.274;26.924;2023-04-03T00:00:16;98214.56;;;10.61;65.73
37856;BME280;23694;43.274;26.924;2023-04-03T00:02:43;98218.34;;;10.68;65.72
37856;BME280;23694;43.274;26.924;2023-04-03T00:05:09;98221.91;;;10.67;65.29
37856;BME280;23694;43.274;26.924;2023-04-03T00:07:35;98215.00;;;10.66;65.30
37856;BME280;23694;43.274;26.924;2023-04-03T00:10:01;98219.03;;;10.70;65.56
37856;BME280;23694;43.274;26.924;2023-04-03T00:12:27;98216.06;;;10.75;64.98
37856;BME280;23694;43.274;26.924;2023-04-03T00:14:53;98222.25;;;10.74;65.12
37856;BME280;23694;43.274;26.924;2023-04-03T00:17:19;98208.19;;;10.75;65.44
37856;BME280;23694;43.274;26.924;2023-04-03T00:19:45;98219.72;;;10.84;64.96
37856;BME280;23694;43.274;26.924;2023-04-03T00:22:11;98218.84;;;10.94;64.60
37856;BME280;23694;43.274;26.924;2023-04-03T00:24:37;98218.47;;;10.99;64.62
37856;BME280;23694;43.274;26.924;2023-04-03T00:27:04;98212.53;;;10.97;64.72
37856;BME280;23694;43.274;26.924;2023-04-03T00:29:30;98222.50;;;11.03;64.61
37856;BME280;23694;43.274;26.924;2023-04-03T00:31:56;98216.31;;;11.04;64.62
37856;BME280;23694;43.274;26.924;2023-04-03T00:34:22;98226.34;;;10.99;64.84
37856;BME280;23694;43.274;26.924;2023-04-03T00:36:48;98215.97;;;10.97;64.88
37856;BME280;23694;43.274;26.924;2023-04-03T00:39:14;98211.06;;;11.04;64.31
37856;BME280;23694;43.274;26.924;2023-04-03T00:41:40;98202.63;;;11.00;64.43
37856;BME280;23694;43.274;26.924;2023-04-03T00:44:20;98195.97;;;10.96;64.66
37856;BME280;23694;43.274;26.924;2023-04-03T00:46:46;98203.13;;;10.94;65.11
37856;BME280;23694;43.274;26.924;2023-04-03T00:49:12;98203.97;;;10.95;65.14
37856;BME280;23694;43.274;26.924;2023-04-03T00:51:39;98201.34;;;10.95;65.17
37856;BME280;23694;43.274;26.924;2023-04-03T00:54:07;98206.50;;;10.85;65.75
37856;BME280;23694;43.274;26.924;2023-04-03T00:56:35;98197.00;;;10.73;65.89
37856;BME280;23694;43.274;26.924;2023-04-03T01:01:31;98207.38;;;10.74;66.80
37856;BME280;23694;43.274;26.924;2023-04-03T01:04:02;98208.69;;;10.69;66.91
37856;BME280;23694;43.274;26.924;2023-04-03T01:06:31;98202.38;;;10.71;66.73
37856;BME280;23694;43.274;26.924;2023-04-03T01:08:59;98190.03;;;10.62;67.05
37856;BME280;23694;43.274;26.924;2023-04-03T01:11:25;98191.91;;;10.71;67.12
37856;BME280;23694;43.274;26.924;2023-04-03T01:13:53;98190.72;;;10.64;67.10
37856;BME280;23694;43.274;26.924;2023-04-03T01:16:19;98186.19;;;10.66;66.73
37856;BME280;23694;43.274;26.924;2023-04-03T01:18:45;98190.59;;;10.66;66.92
37856;BME280;23694;43.274;26.924;2023-04-03T01:24:20;98187.00;;;10.78;66.82
37856;BME280;23694;43.274;26.924;2023-04-03T01:26:48;98185.84;;;10.71;66.35
37856;BME280;23694;43.274;26.924;2023-04-03T01:29:14;98188.91;;;10.76;66.74
37856;BME280;23694;43.274;26.924;2023-04-03T01:31:55;98185.72;;;10.72;66.08
37856;BME280;23694;43.274;26.924;2023-04-03T01:34:22;98193.06;;;10.78;66.17
37856;BME280;23694;43.274;26.924;2023-04-03T01:36:49;98193.94;;;10.68;66.86
37856;BME280;23694;43.274;26.924;2023-04-03T01:39:16;98193.66;;;10.82;66.08
37856;BME280;23694;43.274;26.924;2023-04-03T01:41:43;98201.88;;;10.77;66.34
37856;BME280;23694;43.274;26.924;2023-04-03T01:44:09;98200.34;;;10.75;66.00
37856;BME280;23694;43.274;26.924;2023-04-03T01:46:35;98200.22;;;10.76;65.96
37856;BME280;23694;43.274;26.924;2023-04-03T01:49:03;98199.50;;;10.74;65.98
37856;BME280;23694;43.274;26.924;2023-04-03T01:51:30;98201.41;;;10.72;66.27
37856;BME280;23694;43.274;26.924;2023-04-03T01:53:56;98200.84;;;10.69;66.44
37856;BME280;23694;43.274;26.924;2023-04-03T01:56:22;98202.88;;;10.65;66.32
37856;BME280;23694;43.274;26.924;2023-04-03T01:58:48;98197.63;;;10.65;66.32
37856;BME280;23694;43.274;26.924;2023-04-03T02:01:15;98206.91;;;10.69;66.19
37856;BME280;23694;43.274;26.924;2023-04-03T02:03:41;98200.16;;;10.56;66.63
37856;BME280;23694;43.274;26.924;2023-04-03T02:06:07;98198.88;;;10.50;66.87
37856;BME280;23694;43.274;26.924;2023-04-03T02:08:33;98198.66;;;10.42;66.77
37856;BME280;23694;43.274;26.924;2023-04-03T02:10:59;98199.22;;;10.57;66.61
37856;BME280;23694;43.274;26.924;2023-04-03T02:13:25;98197.09;;;10.51;66.74
37856;BME280;23694;43.274;26.924;2023-04-03T02:15:51;98206.47;;;10.53;66.87
37856;BME280;23694;43.274;26.924;2023-04-03T02:18:18;98194.72;;;10.47;66.33
37856;BME280;23694;43.274;26.924;2023-04-03T02:20:44;98201.38;;;10.52;66.70
37856;BME280;23694;43.274;26.924;2023-04-03T02:23:10;98201.38;;;10.52;66.48
37856;BME280;23694;43.274;26.924;2023-04-03T02:25:36;98202.44;;;10.49;66.54
37856;BME280;23694;43.274;26.924;2023-04-03T02:28:02;98206.25;;;10.45;66.71
37856;BME280;23694;43.274;26.924;2023-04-03T02:30:28;98214.09;;;10.45;66.84
37856;BME280;23694;43.274;26.924;2023-04-03T02:32:54;98201.38;;;10.52;66.64
37856;BME280;23694;43.274;26.924;2023-04-03T02:35:21;98205.88;;;10.50;66.51
37856;BME280;23694;43.274;26.924;2023-04-03T02:37:47;98199.69;;;10.51;66.62
37856;BME280;23694;43.274;26.924;2023-04-03T02:40:13;98208.28;;;10.41;66.74
37856;BME280;23694;43.274;26.924;2023-04-03T02:42:39;98203.03;;;10.53;66.40
37856;BME280;23694;43.274;26.924;2023-04-03T02:45:06;98212.78;;;10.51;66.26
37856;BME280;23694;43.274;26.924;2023-04-03T02:47:32;98211.47;;;10.34;67.46
37856;BME280;23694;43.274;26.924;2023-04-03T02:49:58;98206.47;;;10.31;67.20
37856;BME280;23694;43.274;26.924;2023-04-03T02:52:24;98211.22;;;10.37;66.88
37856;BME280;23694;43.274;26.924;2023-04-03T02:54:50;98214.00;;;10.46;66.29
37856;BME280;23694;43.274;26.924;2023-04-03T02:57:16;98209.94;;;10.42;65.91
37856;BME280;23694;43.274;26.924;2023-04-03T02:59:42;98219.19;;;10.13;66.46
37856;BME280;23694;43.274;26.924;2023-04-03T03:02:10;98224.66;;;9.76;68.21
37856;BME280;23694;43.274;26.924;2023-04-03T03:04:36;98233.59;;;9.39;69.61
37856;BME280;23694;43.274;26.924;2023-04-03T03:07:03;98231.66;;;9.06;71.52
37856;BME280;23694;43.274;26.924;2023-04-03T03:09:29;98249.69;;;8.98;72.94
37856;BME280;23694;43.274;26.924;2023-04-03T03:11:56;98252.75;;;8.92;73.15
37856;BME280;23694;43.274;26.924;2023-04-03T03:14:22;98250.53;;;8.74;74.19
37856;BME280;23694;43.274;26.924;2023-04-03T03:16:48;98249.78;;;8.72;74.75
37856;BME280;23694;43.274;26.924;2023-04-03T03:19:15;98246.91;;;8.88;73.74
37856;BME280;23694;43.274;26.924;2023-04-03T03:21:41;98247.41;;;8.93;73.71
37856;BME280;23694;43.274;26.924;2023-04-03T03:24:07;98251.22;;;9.13;72.81
37856;BME280;23694;43.274;26.924;2023-04-03T03:26:33;98259.88;;;9.13;72.53
37856;BME280;23694;43.274;26.924;2023-04-03T03:29:00;98261.53;;;9.14;73.10
37856;BME280;23694;43.274;26.924;2023-04-03T03:31:26;98257.06;;;9.04;73.35
37856;BME280;23694;43.274;26.924;2023-04-03T03:33:52;98265.34;;;8.98;73.50
37856;BME280;23694;43.274;26.924;2023-04-03T03:36:18;98272.91;;;8.89;73.74
37856;BME280;23694;43.274;26.924;2023-04-03T03:38:44;98270.03;;;8.81;73.99
37856;BME280;23694;43.274;26.924;2023-04-03T03:41:10;98272.63;;;8.81;74.36
37856;BME280;23694;43.274;26.924;2023-04-03T03:43:36;98277.28;;;8.65;74.58
37856;BME280;23694;43.274;26.924;2023-04-03T03:46:02;98285.47;;;8.48;75.87
37856;BME280;23694;43.274;26.924;2023-04-03T03:48:28;98285.34;;;8.62;75.63
37856;BME280;23694;43.274;26.924;2023-04-03T03:50:54;98286.53;;;8.45;75.82
37856;BME280;23694;43.274;26.924;2023-04-03T03:53:20;98287.53;;;8.43;76.38
37856;BME280;23694;43.274;26.924;2023-04-03T03:55:46;98287.66;;;8.54;75.93
37856;BME280;23694;43.274;26.924;2023-04-03T03:58:12;98282.66;;;8.51;75.44
37856;BME280;23694;43.274;26.924;2023-04-03T04:00:38;98291.31;;;8.51;76.57
37856;BME280;23694;43.274;26.924;2023-04-03T04:03:05;98282.41;;;8.67;75.27
37856;BME280;23694;43.274;26.924;2023-04-03T04:05:31;98288.09;;;8.84;75.13
37856;BME280;23694;43.274;26.924;2023-04-03T04:07:57;98279.41;;;9.08;74.42
37856;BME280;23694;43.274;26.924;2023-04-03T04:10:23;98272.34;;;9.80;71.44
37856;BME280;23694;43.274;26.924;2023-04-03T04:12:49;98276.91;;;10.34;68.20
37856;BME280;23694;43.274;26.924;2023-04-03T04:15:17;98284.41;;;10.72;65.79
37856;BME280;23694;43.274;26.924;2023-04-03T04:17:43;98286.06;;;10.73;65.32
37856;BME280;23694;43.274;26.924;2023-04-03T04:20:09;98278.09;;;10.74;64.98
37856;BME280;23694;43.274;26.924;2023-04-03T04:22:36;98282.28;;;10.66;65.68
37856;BME280;23694;43.274;26.924;2023-04-03T04:25:02;98280.13;;;10.37;66.99
37856;BME280;23694;43.274;26.924;2023-04-03T04:27:28;98285.63;;;10.57;66.04
37856;BME280;23694;43.274;26.924;2023-04-03T04:29:54;98290.34;;;10.74;65.52
37856;BME280;23694;43.274;26.924;2023-04-03T04:32:20;98289.28;;;10.76;64.95
37856;BME280;23694;43.274;26.924;2023-04-03T04:34:46;98286.34;;;10.47;66.77
37856;BME280;23694;43.274;26.924;2023-04-03T04:37:12;98283.13;;;10.55;67.06
37856;BME280;23694;43.274;26.924;2023-04-03T04:39:38;98281.22;;;11.43;63.00
37856;BME280;23694;43.274;26.924;2023-04-03T04:42:04;98287.69;;;11.92;60.58
37856;BME280;23694;43.274;26.924;2023-04-03T04:44:30;98293.63;;;11.94;60.11
37856;BME280;23694;43.274;26.924;2023-04-03T04:46:56;98287.19;;;11.78;60.90
37856;BME280;23694;43.274;26.924;2023-04-03T04:49:22;98290.38;;;11.49;61.77
37856;BME280;23694;43.274;26.924;2023-04-03T04:51:48;98294.84;;;11.58;62.53
37856;BME280;23694;43.274;26.924;2023-04-03T04:54:14;98295.44;;;11.62;61.46
37856;BME280;23694;43.274;26.924;2023-04-03T04:56:40;98304.09;;;11.73;61.98
37856;BME280;23694;43.274;26.924;2023-04-03T04:59:07;98307.44;;;11.43;62.39
37856;BME280;23694;43.274;26.924;2023-04-03T05:01:33;98294.66;;;11.50;63.30
37856;BME280;23694;43.274;26.924;2023-04-03T05:03:59;98291.78;;;10.33;66.91
37856;BME280;23694;43.274;26.924;2023-04-03T05:06:25;98297.91;;;11.10;66.31
37856;BME280;23694;43.274;26.924;2023-04-03T05:08:51;98299.53;;;12.68;58.99
37856;BME280;23694;43.274;26.924;2023-04-03T05:11:17;98296.75;;;12.70;57.38
37856;BME280;23694;43.274;26.924;2023-04-03T05:13:43;98300.03;;;12.01;59.94
37856;BME280;23694;43.274;26.924;2023-04-03T05:16:09;98311.19;;;11.94;60.40
37856;BME280;23694;43.274;26.924;2023-04-03T05:18:35;98300.69;;;11.62;61.57
37856;BME280;23694;43.274;26.924;2023-04-03T05:21:01;98309.72;;;11.80;62.03
37856;BME280;23694;43.274;26.924;2023-04-03T05:23:27;98319.59;;;12.79;58.65
37856;BME280;23694;43.274;26.924;2023-04-03T05:25:53;98317.28;;;13.93;55.22
37856;BME280;23694;43.274;26.924;2023-04-03T05:28:20;98321.47;;;14.52;52.39
37856;BME280;23694;43.274;26.924;2023-04-03T05:30:53;98316.75;;;14.83;51.21
37856;BME280;23694;43.274;26.924;2023-04-03T05:33:20;98324.13;;;16.14;47.92
37856;BME280;23694;43.274;26.924;2023-04-03T05:35:46;98317.72;;;16.68;44.24
37856;BME280;23694;43.274;26.924;2023-04-03T05:38:12;98329.56;;;15.23;47.84
37856;BME280;23694;43.274;26.924;2023-04-03T05:40:38;98321.72;;;15.77;46.41
37856;BME280;23694;43.274;26.924;2023-04-03T05:43:04;98334.06;;;16.20;46.09
37856;BME280;23694;43.274;26.924;2023-04-03T05:45:30;98340.91;;;16.83;44.37
37856;BME280;23694;43.274;26.924;2023-04-03T05:47:56;98344.38;;;16.83;43.92
37856;BME280;23694;43.274;26.924;2023-04-03T05:50:22;98338.41;;;17.82;41.84
37856;BME280;23694;43.274;26.924;2023-04-03T05:52:49;98336.75;;;18.13;41.04
37856;BME280;23694;43.274;26.924;2023-04-03T05:55:17;98353.06;;;18.74;39.47
37856;BME280;23694;43.274;26.924;2023-04-03T05:57:43;98348.63;;;18.58;39.59
37856;BME280;23694;43.274;26.924;2023-04-03T06:00:12;98353.06;;;18.74;39.18
37856;BME280;23694;43.274;26.924;2023-04-03T06:02:40;98356.06;;;19.18;37.49
37856;BME280;23694;43.274;26.924;2023-04-03T06:05:08;98361.91;;;18.17;39.08
37856;BME280;23694;43.274;26.924;2023-04-03T06:07:35;98371.91;;;17.49;41.26
37856;BME280;23694;43.274;26.924;2023-04-03T06:10:02;98373.34;;;17.69;41.16
37856;BME280;23694;43.274;26.924;2023-04-03T06:12:29;98378.47;;;17.87;40.51
37856;BME280;23694;43.274;26.924;2023-04-03T06:14:55;98387.81;;;17.49;41.02
37856;BME280;23694;43.274;26.924;2023-04-03T06:17:21;98400.59;;;17.11;41.76
37856;BME280;23694;43.274;26.924;2023-04-03T06:19:48;98397.94;;;16.59;42.92
37856;BME280;23694;43.274;26.924;2023-04-03T06:22:14;98391.63;;;15.28;47.16
37856;BME280;23694;43.274;26.924;2023-04-03T06:24:40;98386.13;;;15.39;49.01
37856;BME280;23694;43.274;26.924;2023-04-03T06:27:07;98388.84;;;15.92;47.66
37856;BME280;23694;43.274;26.924;2023-04-03T06:29:33;98381.66;;;16.02;46.88
37856;BME280;23694;43.274;26.924;2023-04-03T06:31:59;98387.22;;;16.17;46.07
37856;BME280;23694;43.274;26.924;2023-04-03T06:34:25;98388.63;;;16.47;45.76
37856;BME280;23694;43.274;26.924;2023-04-03T06:36:51;98388.31;;;16.76;45.61
37856;BME280;23694;43.274;26.924;2023-04-03T06:39:20;98402.88;;;16.54;44.62
37856;BME280;23694;43.274;26.924;2023-04-03T06:41:48;98403.16;;;16.25;44.96
37856;BME280;23694;43.274;26.924;2023-04-03T06:44:16;98392.00;;;16.31;45.80
37856;BME280;23694;43.274;26.924;2023-04-03T06:46:43;98385.16;;;16.72;46.26
37856;BME280;23694;43.274;26.924;2023-04-03T06:49:10;98388.03;;;17.13;45.31
37856;BME280;23694;43.274;26.924;2023-04-03T06:51:37;98382.78;;;17.29;44.10
37856;BME280;23694;43.274;26.924;2023-04-03T06:54:04;98389.50;;;17.07;43.79
37856;BME280;23694;43.274;26.924;2023-04-03T06:56:32;98404.56;;;17.15;44.61
37856;BME280;23694;43.274;26.924;2023-04-03T06:58:58;98407.91;;;17.25;43.84
37856;BME280;23694;43.274;26.924;2023-04-03T07:01:26;98402.09;;;16.88;44.91
37856;BME280;23694;43.274;26.924;2023-04-03T07:03:53;98404.53;;;17.07;44.57
37856;BME280;23694;43.274;26.924;2023-04-03T07:06:19;98403.84;;;16.97;45.06
37856;BME280;23694;43.274;26.924;2023-04-03T07:08:46;98411.16;;;17.11;44.43
37856;BME280;23694;43.274;26.924;2023-04-03T07:11:14;98403.72;;;17.06;43.64
37856;BME280;23694;43.274;26.924;2023-04-03T07:13:40;98413.94;;;17.01;44.13
37856;BME280;23694;43.274;26.924;2023-04-03T07:16:07;98412.28;;;17.00;44.37
37856;BME280;23694;43.274;26.924;2023-04-03T07:18:34;98418.75;;;17.06;44.44
37856;BME280;23694;43.274;26.924;2023-04-03T07:21:01;98410.84;;;17.14;43.95
37856;BME280;23694;43.274;26.924;2023-04-03T07:23:27;98409.72;;;17.25;44.08
37856;BME280;23694;43.274;26.924;2023-04-03T07:25:54;98414.22;;;17.32;42.84
37856;BME280;23694;43.274;26.924;2023-04-03T07:28:21;98417.06;;;17.39;42.78
37856;BME280;23694;43.274;26.924;2023-04-03T07:30:52;98428.41;;;17.23;43.68
37856;BME280;23694;43.274;26.924;2023-04-03T07:33:20;98419.00;;;17.29;43.12
37856;BME280;23694;43.274;26.924;2023-04-03T07:35:47;98424.13;;;17.22;42.95
37856;BME280;23694;43.274;26.924;2023-04-03T07:38:13;98424.00;;;17.32;42.93
37856;BME280;23694;43.274;26.924;2023-04-03T07:40:39;98419.34;;;17.68;42.30
37856;BME280;23694;43.274;26.924;2023-04-03T07:43:06;98433.69;;;17.57;42.47
37856;BME280;23694;43.274;26.924;2023-04-03T07:45:34;98431.72;;;17.59;42.75
37856;BME280;23694;43.274;26.924;2023-04-03T07:48:01;98439.53;;;17.27;43.87
37856;BME280;23694;43.274;26.924;2023-04-03T07:50:27;98446.03;;;16.80;45.74
37856;BME280;23694;43.274;26.924;2023-04-03T07:52:57;98445.84;;;17.34;45.52
37856;BME280;23694;43.274;26.924;2023-04-03T07:55:24;98434.53;;;17.24;44.49
37856;BME280;23694;43.274;26.924;2023-04-03T07:57:50;98433.38;;;17.18;44.12
37856;BME280;23694;43.274;26.924;2023-04-03T08:00:17;98433.75;;;17.31;43.72
37856;BME280;23694;43.274;26.924;2023-04-03T08:02:44;98431.63;;;17.43;43.20
37856;BME280;23694;43.274;26.924;2023-04-03T08:05:10;98429.06;;;17.59;43.05
37856;BME280;23694;43.274;26.924;2023-04-03T08:07:37;98421.84;;;17.69;42.41
37856;BME280;23694;43.274;26.924;2023-04-03T08:10:04;98420.47;;;17.65;42.66
37856;BME280;23694;43.274;26.924;2023-04-03T08:12:30;98423.16;;;17.73;43.29
37856;BME280;23694;43.274;26.924;2023-04-03T08:14:59;98427.50;;;17.83;43.90
37856;BME280;23694;43.274;26.924;2023-04-03T08:17:27;98419.03;;;17.87;42.80
37856;BME280;23694;43.274;26.924;2023-04-03T08:19:53;98423.19;;;17.82;43.23
37856;BME280;23694;43.274;26.924;2023-04-03T08:22:19;98423.88;;;18.08;42.71
37856;BME280;23694;43.274;26.924;2023-04-03T08:24:45;98420.72;;;18.04;41.44
37856;BME280;23694;43.274;26.924;2023-04-03T08:27:11;98416.22;;;17.81;41.93
37856;BME280;23694;43.274;26.924;2023-04-03T08:29:37;98423.50;;;17.79;42.15
37856;BME280;23694;43.274;26.924;2023-04-03T08:32:04;98417.88;;;17.82;42.59
37856;BME280;23694;43.274;26.924;2023-04-03T08:34:31;98426.16;;;17.87;42.63
37856;BME280;23694;43.274;26.924;2023-04-03T08:37:01;98435.28;;;18.09;42.13
37856;BME280;23694;43.274;26.924;2023-04-03T08:39:27;98425.50;;;17.93;42.55
37856;BME280;23694;43.274;26.924;2023-04-03T08:41:57;98421.22;;;18.00;42.22
37856;BME280;23694;43.274;26.924;2023-04-03T08:49:39;98410.78;;;18.72;40.59
37856;BME280;23694;43.274;26.924;2023-04-03T08:52:11;98409.28;;;18.69;40.95
37856;BME280;23694;43.274;26.924;2023-04-03T08:54:56;98409.00;;;18.23;41.30
37856;BME280;23694;43.274;26.924;2023-04-03T08:57:35;98406.66;;;18.28;41.52
37856;BME280;23694;43.274;26.924;2023-04-03T09:02:57;98395.22;;;18.36;41.32
37856;BME280;23694;43.274;26.924;2023-04-03T09:08:30;98386.44;;;18.35;42.08
37856;BME280;23694;43.274;26.924;2023-04-03T09:11:15;98387.44;;;18.26;42.66
37856;BME280;23694;43.274;26.924;2023-04-03T09:14:04;98384.94;;;18.49;41.19
37856;BME280;23694;43.274;26.924;2023-04-03T09:16:51;98375.34;;;18.24;41.63
37856;BME280;23694;43.274;26.924;2023-04-03T09:22:16;98380.63;;;17.25;43.98
37856;BME280;23694;43.274;26.924;2023-04-03T09:24:45;98367.47;;;16.99;45.41
37856;BME280;23694;43.274;26.924;2023-04-03T09:27:12;98377.75;;;17.10;45.35
37856;BME280;23694;43.274;26.924;2023-04-03T09:29:43;98372.25;;;16.95;46.24
37856;BME280;23694;43.274;26.924;2023-04-03T09:32:28;98376.78;;;17.11;45.54
37856;BME280;23694;43.274;26.924;2023-04-03T09:34:58;98374.50;;;17.24;45.63
37856;BME280;23694;43.274;26.924;2023-04-03T09:37:39;98372.97;;;16.79;46.48
37856;BME280;23694;43.274;26.924;2023-04-03T09:40:11;98368.56;;;16.62;46.99
37856;BME280;23694;43.274;26.924;2023-04-03T09:43:00;98372.56;;;16.23;48.22
37856;BME280;23694;43.274;26.924;2023-04-03T09:45:32;98371.22;;;16.36;47.68
37856;BME280;23694;43.274;26.924;2023-04-03T09:50:58;98380.06;;;16.79;46.24
37856;BME280;23694;43.274;26.924;2023-04-03T09:55:51;98370.81;;;17.09;45.16
37856;BME280;23694;43.274;26.924;2023-04-03T09:58:37;98375.16;;;16.84;45.19
37856;BME280;23694;43.274;26.924;2023-04-03T10:01:04;98364.13;;;16.37;46.58
37856;BME280;23694;43.274;26.924;2023-04-03T10:03:32;98375.88;;;16.42;46.81
37856;BME280;23694;43.274;26.924;2023-04-03T10:06:02;98374.28;;;16.49;46.37
37856;BME280;23694;43.274;26.924;2023-04-03T10:08:31;98370.13;;;16.47;46.99
37856;BME280;23694;43.274;26.924;2023-04-03T10:11:17;98366.19;;;16.77;46.33
37856;BME280;23694;43.274;26.924;2023-04-03T10:14:01;98374.94;;;17.11;45.13
37856;BME280;23694;43.274;26.924;2023-04-03T10:25:13;98373.72;;;17.48;43.99
37856;BME280;23694;43.274;26.924;2023-04-03T10:30:29;98369.25;;;17.49;43.72
37856;BME280;23694;43.274;26.924;2023-04-03T10:33:17;98357.63;;;15.88;47.86
37856;BME280;23694;43.274;26.924;2023-04-03T10:39:00;98354.28;;;16.03;47.97
37856;BME280;23694;43.274;26.924;2023-04-03T10:42:02;98354.81;;;16.59;46.63
37856;BME280;23694;43.274;26.924;2023-04-03T10:58:32;98347.81;;;15.62;54.21
37856;BME280;23694;43.274;26.924;2023-04-03T11:01:06;98360.25;;;15.88;53.21
37856;BME280;23694;43.274;26.924;2023-04-03T11:03:44;98348.25;;;15.58;54.71
37856;BME280;23694;43.274;26.924;2023-04-03T11:06:15;98341.78;;;15.25;56.11
37856;BME280;23694;43.274;26.924;2023-04-03T11:08:46;98345.19;;;15.52;55.19
37856;BME280;23694;43.274;26.924;2023-04-03T11:11:21;98344.56;;;15.86;53.53
37856;BME280;23694;43.274;26.924;2023-04-03T11:13:54;98341.38;;;14.92;56.00
37856;BME280;23694;43.274;26.924;2023-04-03T11:16:24;98340.13;;;15.23;55.74
37856;BME280;23694;43.274;26.924;2023-04-03T11:18:56;98344.97;;;15.28;55.40
37856;BME280;23694;43.274;26.924;2023-04-03T11:21:29;98345.63;;;15.12;55.79
37856;BME280;23694;43.274;26.924;2023-04-03T11:23:57;98352.91;;;14.91;56.54
37856;BME280;23694;43.274;26.924;2023-04-03T11:26:30;98345.31;;;14.51;58.11
37856;BME280;23694;43.274;26.924;2023-04-03T11:29:02;98351.13;;;14.91;56.89
37856;BME280;23694;43.274;26.924;2023-04-03T11:36:25;98349.25;;;15.74;52.89
37856;BME280;23694;43.274;26.924;2023-04-03T11:38:55;98349.22;;;15.92;52.56
37856;BME280;23694;43.274;26.924;2023-04-03T11:41:31;98338.88;;;15.99;51.80
37856;BME280;23694;43.274;26.924;2023-04-03T11:44:06;98348.31;;;16.01;50.41
37856;BME280;23694;43.274;26.924;2023-04-03T11:46:52;98347.97;;;15.78;51.05
37856;BME280;23694;43.274;26.924;2023-04-03T11:49:51;98334.84;;;15.69;51.60
37856;BME280;23694;43.274;26.924;2023-04-03T12:05:54;98304.94;;;15.50;49.47
37856;BME280;23694;43.274;26.924;2023-04-03T12:08:29;98292.25;;;15.36;50.34
37856;BME280;23694;43.274;26.924;2023-04-03T12:14:03;98277.28;;;15.72;48.96
37856;BME280;23694;43.274;26.924;2023-04-03T12:16:48;98274.13;;;15.69;49.68
37856;BME280;23694;43.274;26.924;2023-04-03T12:19:33;98267.81;;;15.62;49.54
37856;BME280;23694;43.274;26.924;2023-04-03T12:24:37;98266.63;;;15.46;50.56
37856;BME280;23694;43.274;26.924;2023-04-03T12:32:56;98282.78;;;15.79;51.17
37856;BME280;23694;43.274;26.924;2023-04-03T12:35:34;98289.97;;;15.69;52.45
37856;BME280;23694;43.274;26.924;2023-04-03T12:45:59;98291.13;;;15.92;53.32
37856;BME280;23694;43.274;26.924;2023-04-03T12:48:30;98294.38;;;15.86;53.51
37856;BME280;23694;43.274;26.924;2023-04-03T12:50:58;98287.28;;;15.87;53.29
37856;BME280;23694;43.274;26.924;2023-04-03T12:53:31;98294.59;;;15.93;51.96
37856;BME280;23694;43.274;26.924;2023-04-03T12:56:22;98286.81;;;15.65;51.42
37856;BME280;23694;43.274;26.924;2023-04-03T12:58:52;98276.28;;;15.38;51.60
37856;BME280;23694;43.274;26.924;2023-04-03T13:01:21;98283.63;;;15.62;50.88
37856;BME280;23694;43.274;26.924;2023-04-03T13:03:52;98275.31;;;15.74;51.07
37856;BME280;23694;43.274;26.924;2023-04-03T13:06:23;98271.09;;;15.81;51.13
37856;BME280;23694;43.274;26.924;2023-04-03T13:08:58;98284.75;;;15.77;52.22
37856;BME280;23694;43.274;26.924;2023-04-03T13:11:32;98272.13;;;15.89;52.02
37856;BME280;23694;43.274;26.924;2023-04-03T13:14:05;98270.69;;;15.94;51.37
37856;BME280;23694;43.274;26.924;2023-04-03T13:16:39;98258.00;;;15.98;49.84
37856;BME280;23694;43.274;26.924;2023-04-03T13:19:16;98264.16;;;16.06;49.74
37856;BME280;23694;43.274;26.924;2023-04-03T13:21:43;98262.50;;;16.05;49.24
37856;BME280;23694;43.274;26.924;2023-04-03T13:24:10;98269.03;;;15.93;48.98
37856;BME280;23694;43.274;26.924;2023-04-03T13:26:37;98265.66;;;15.83;49.34
37856;BME280;23694;43.274;26.924;2023-04-03T13:29:07;98262.63;;;15.78;49.33
37856;BME280;23694;43.274;26.924;2023-04-03T13:31:38;98274.94;;;15.69;49.59
37856;BME280;23694;43.274;26.924;2023-04-03T13:34:13;98269.66;;;15.34;51.53
37856;BME280;23694;43.274;26.924;2023-04-03T13:36:55;98274.38;;;15.48;51.63
37856;BME280;23694;43.274;26.924;2023-04-03T13:39:31;98266.63;;;15.46;52.21
37856;BME280;23694;43.274;26.924;2023-04-03T13:42:00;98273.25;;;15.15;53.36
37856;BME280;23694;43.274;26.924;2023-04-03T13:44:35;98260.00;;;15.25;55.77
37856;BME280;23694;43.274;26.924;2023-04-03T13:47:14;98278.03;;;15.29;58.95
37856;BME280;23694;43.274;26.924;2023-04-03T13:49:44;98267.69;;;15.18;61.02
37856;BME280;23694;43.274;26.924;2023-04-03T13:57:57;98286.75;;;14.84;64.32
37856;BME280;23694;43.274;26.924;2023-04-03T14:03:30;98278.91;;;14.28;67.08
37856;BME280;23694;43.274;26.924;2023-04-03T14:05:57;98287.25;;;14.43;67.24
37856;BME280;23694;43.274;26.924;2023-04-03T14:08:23;98291.41;;;14.26;68.49
37856;BME280;23694;43.274;26.924;2023-04-03T14:10:50;98289.53;;;14.09;70.44
37856;BME280;23694;43.274;26.924;2023-04-03T14:13:19;98297.44;;;13.99;71.74
37856;BME280;23694;43.274;26.924;2023-04-03T14:15:47;98281.69;;;13.60;73.77
37856;BME280;23694;43.274;26.924;2023-04-03T14:18:16;98303.16;;;13.27;76.79
37856;BME280;23694;43.274;26.924;2023-04-03T14:20:45;98304.91;;;13.07;78.84
37856;BME280;23694;43.274;26.924;2023-04-03T14:23:11;98299.72;;;12.96;78.35
37856;BME280;23694;43.274;26.924;2023-04-03T14:25:38;98312.84;;;12.86;79.91
37856;BME280;23694;43.274;26.924;2023-04-03T14:28:19;98309.13;;;12.89;79.69
37856;BME280;23694;43.274;26.924;2023-04-03T14:30:48;98313.19;;;12.62;81.03
37856;BME280;23694;43.274;26.924;2023-04-03T14:33:20;98316.78;;;12.61;82.26
37856;BME280;23694;43.274;26.924;2023-04-03T14:35:47;98325.22;;;12.65;81.24
37856;BME280;23694;43.274;26.924;2023-04-03T14:40:49;98329.88;;;12.52;82.54